Terminal Aerodrome Forecast
Issued by NWS

Home | Current Version | Previous Version | Graphics & Text | Print | Product List | Glossary On
Versions: 1 2 3 4 5 6 7 8 9 10 11 12 13 14 15 16
155
FTUS43 KBIS 100531
TAFJMS
TAF
KJMS 100531Z 1006/1106 11008KT P6SM VCSH OVC045
     FM100700 12009KT 2SM -SN BR OVC025
     FM101600 12010KT 3SM -SN OVC020
     FM101800 12010KT P6SM -SN OVC015
     FM110000 07006KT P6SM OVC010
     FM110500 04005KT P6SM OVC035=

USA.gov is the U.S. government's official web portal to all federal, state and local government web resources and services.